createdAt,value
2019-02-27T00:04:28.083Z,16.43
2019-02-27T00:06:57.460Z,17.50
2019-02-27T00:09:27.020Z,14.77
2019-02-27T00:11:56.602Z,13.73
2019-02-27T00:14:28.699Z,15.17
2019-02-27T00:16:57.267Z,17.60
2019-02-27T00:19:31.136Z,16.97
2019-02-27T00:21:59.745Z,15.70
2019-02-27T00:24:29.937Z,13.93
2019-02-27T00:26:59.860Z,18.03
2019-02-27T00:29:29.601Z,13.97
2019-02-27T00:31:59.050Z,18.10
2019-02-27T00:34:28.327Z,11.73
2019-02-27T00:37:00.661Z,13.47
2019-02-27T00:39:31.343Z,15.53
2019-02-27T00:42:01.436Z,14.77
2019-02-27T00:44:33.924Z,16.27
2019-02-27T00:47:01.965Z,10.10
2019-02-27T00:49:39.912Z,13.50
2019-02-27T00:52:09.582Z,12.77
2019-02-27T00:54:39.444Z,15.77
2019-02-27T00:57:09.034Z,11.47
2019-02-27T00:59:38.329Z,14.03
2019-02-27T01:02:07.740Z,13.40
2019-02-27T01:04:37.353Z,13.50
2019-02-27T01:07:07.263Z,10.73
2019-02-27T01:09:39.046Z,16.20
2019-02-27T01:12:07.859Z,13.37
2019-02-27T01:14:37.690Z,10.30
2019-02-27T01:17:06.992Z,14.93
2019-02-27T01:19:39.208Z,16.67
2019-02-27T01:22:08.719Z,12.93
2019-02-27T01:24:38.303Z,13.63
2019-02-27T01:27:11.010Z,12.73
2019-02-27T01:29:40.359Z,14.67
2019-02-27T01:32:09.934Z,12.40
2019-02-27T01:34:44.289Z,13.83
2019-02-27T01:37:11.440Z,13.87
2019-02-27T01:39:41.851Z,11.93
2019-02-27T01:42:11.814Z,11.77
2019-02-27T01:44:44.006Z,13.90
2019-02-27T01:47:14.386Z,9.73
2019-02-27T01:49:43.898Z,11.47
2019-02-27T01:52:13.180Z,12.50
2019-02-27T01:54:42.459Z,12.77
2019-02-27T01:57:11.807Z,11.07
2019-02-27T01:59:41.101Z,10.67
2019-02-27T02:02:10.668Z,11.07
2019-02-27T02:04:39.977Z,14.67
2019-02-27T02:07:09.567Z,10.87
2019-02-27T02:09:40.056Z,10.90
2019-02-27T02:12:30.231Z,13.23
2019-02-27T02:15:38.483Z,13.63
2019-02-27T02:18:51.301Z,11.53
2019-02-27T02:21:55.441Z,14.07
2019-02-27T02:25:02.935Z,10.40
2019-02-27T02:28:05.458Z,9.40
2019-02-27T02:31:06.322Z,13.27
2019-02-27T02:34:05.480Z,10.00
2019-02-27T02:37:01.241Z,9.77
2019-02-27T02:39:59.104Z,9.67
2019-02-27T02:43:26.427Z,13.63
2019-02-27T02:46:44.778Z,11.60
2019-02-27T02:49:42.260Z,11.90
2019-02-27T02:52:58.921Z,11.10
2019-02-27T02:56:13.544Z,15.70
2019-02-27T02:59:26.907Z,13.87
2019-02-27T03:02:35.183Z,13.87
2019-02-27T03:05:40.641Z,12.97
2019-02-27T03:08:36.364Z,12.07
2019-02-27T03:11:22.956Z,13.20
2019-02-27T03:14:24.335Z,11.00
2019-02-27T03:17:24.205Z,15.27
2019-02-27T03:20:35.077Z,11.90
2019-02-27T03:23:40.476Z,12.57
2019-02-27T03:26:17.791Z,10.90
2019-02-27T03:29:24.011Z,13.43
2019-02-27T03:32:26.588Z,20.90
2019-02-27T03:35:32.415Z,10.97
2019-02-27T03:38:35.276Z,10.63
2019-02-27T03:41:48.458Z,12.40
2019-02-27T03:44:33.089Z,9.17
2019-02-27T03:47:15.566Z,11.37
2019-02-27T03:50:41.403Z,13.50
2019-02-27T03:53:53.088Z,13.47
2019-02-27T03:56:43.441Z,12.23
2019-02-27T03:59:42.654Z,13.97
2019-02-27T04:03:06.947Z,12.90
2019-02-27T04:06:31.082Z,13.33
2019-02-27T04:09:01.219Z,16.40
2019-02-27T04:11:30.692Z,11.57
2019-02-27T04:14:04.883Z,13.83
2019-02-27T04:16:32.030Z,11.23
2019-02-27T04:19:04.696Z,12.80
2019-02-27T04:21:32.305Z,16.40
2019-02-27T04:24:01.631Z,9.80
2019-02-27T04:26:31.168Z,11.90
2019-02-27T04:29:03.970Z,10.20
2019-02-27T04:31:31.921Z,9.47
2019-02-27T04:34:03.179Z,10.63
2019-02-27T04:36:32.505Z,12.53
2019-02-27T04:39:02.406Z,9.43
2019-02-27T04:41:32.422Z,10.07
2019-02-27T04:44:05.326Z,9.77
2019-02-27T04:46:33.012Z,9.30
2019-02-27T04:49:04.941Z,16.53
2019-02-27T04:51:33.595Z,9.80
2019-02-27T04:54:06.404Z,11.93
2019-02-27T04:56:34.115Z,9.77
2019-02-27T04:59:03.449Z,10.17
2019-02-27T05:01:36.373Z,10.23
2019-02-27T05:04:03.953Z,10.80
2019-02-27T05:06:33.899Z,11.57
2019-02-27T05:09:04.283Z,12.37
2019-02-27T05:11:33.610Z,11.33
2019-02-27T05:14:03.365Z,9.10
2019-02-27T05:16:32.941Z,16.93
2019-02-27T05:19:04.081Z,10.27
2019-02-27T05:21:33.355Z,12.33
2019-02-27T05:24:05.146Z,11.97
2019-02-27T05:26:34.001Z,14.80
2019-02-27T05:29:03.283Z,9.80
2019-02-27T05:31:32.624Z,13.43
2019-02-27T05:34:01.937Z,10.03
2019-02-27T05:36:31.632Z,11.50
2019-02-27T05:39:01.891Z,10.23
2019-02-27T05:41:33.151Z,11.77
2019-02-27T05:44:02.478Z,13.60
2019-02-27T05:46:31.785Z,12.37
2019-02-27T05:49:01.483Z,11.87
2019-02-27T05:51:30.796Z,11.90
2019-02-27T05:54:00.420Z,12.73
2019-02-27T05:56:29.736Z,13.73
2019-02-27T05:58:59.150Z,13.07
2019-02-27T06:01:28.743Z,14.07
2019-02-27T06:03:58.019Z,10.33
2019-02-27T06:06:27.366Z,14.57
2019-02-27T06:08:56.679Z,13.17
2019-02-27T06:11:27.062Z,19.77
2019-02-27T06:13:57.565Z,13.33
2019-02-27T06:16:27.141Z,18.13
2019-02-27T06:18:56.970Z,15.27
2019-02-27T06:21:26.318Z,16.07
2019-02-27T06:23:56.501Z,11.70
2019-02-27T06:26:25.857Z,10.90
2019-02-27T06:28:55.403Z,10.57
2019-02-27T06:31:24.809Z,13.07
2019-02-27T06:33:54.072Z,12.17
2019-02-27T06:36:23.348Z,12.43
2019-02-27T06:38:52.751Z,9.67
2019-02-27T06:41:22.034Z,15.97
2019-02-27T06:43:51.305Z,15.80
2019-02-27T06:46:20.777Z,10.07
2019-02-27T06:48:50.183Z,12.57
2019-02-27T06:51:19.470Z,11.80
2019-02-27T06:53:48.787Z,11.90
2019-02-27T06:56:18.074Z,12.37
2019-02-27T06:58:47.530Z,11.93
2019-02-27T07:01:18.428Z,13.73
2019-02-27T07:03:47.975Z,14.37
2019-02-27T07:06:21.315Z,13.83
2019-02-27T07:08:48.829Z,14.57
2019-02-27T07:11:18.115Z,13.30
2019-02-27T07:13:47.674Z,15.37
2019-02-27T07:16:16.995Z,14.00
2019-02-27T07:18:46.358Z,12.20
2019-02-27T07:21:15.654Z,10.53
2019-02-27T07:23:44.987Z,17.53
2019-02-27T07:26:15.829Z,12.40
2019-02-27T07:28:45.286Z,16.70
2019-02-27T07:31:17.539Z,15.60
2019-02-27T07:33:45.897Z,13.47
2019-02-27T07:36:15.489Z,32.63
2019-02-27T07:38:45.199Z,18.03
2019-02-27T07:41:17.470Z,15.00
2019-02-27T07:43:45.776Z,13.23
2019-02-27T07:46:15.402Z,19.77
2019-02-27T07:48:44.696Z,17.93
2019-02-27T07:51:13.996Z,14.00
2019-02-27T07:53:43.271Z,12.97
2019-02-27T07:56:12.536Z,18.57
2019-02-27T07:58:41.870Z,19.27
2019-02-27T08:01:11.180Z,16.90
2019-02-27T08:03:44.650Z,17.93
2019-02-27T08:06:11.764Z,19.20
2019-02-27T08:08:41.280Z,17.50
2019-02-27T08:11:13.128Z,14.17
2019-02-27T08:13:41.888Z,20.53
2019-02-27T08:16:11.193Z,22.60
2019-02-27T08:18:40.464Z,19.97
2019-02-27T08:21:09.802Z,19.43
2019-02-27T08:23:39.351Z,18.07
2019-02-27T08:26:08.644Z,20.27
2019-02-27T08:28:39.092Z,19.40
2019-02-27T08:31:08.389Z,20.97
2019-02-27T08:33:38.388Z,20.20
2019-02-27T08:36:07.985Z,22.00
2019-02-27T08:38:37.291Z,18.03
2019-02-27T08:41:06.631Z,19.23
2019-02-27T08:43:36.134Z,18.50
2019-02-27T08:46:05.422Z,16.27
2019-02-27T08:48:34.825Z,19.20
2019-02-27T08:51:08.593Z,15.27
2019-02-27T08:53:37.135Z,20.00
2019-02-27T08:56:06.724Z,20.27
2019-02-27T08:58:36.090Z,23.17
2019-02-27T09:01:06.392Z,22.30
2019-02-27T09:03:38.347Z,19.00
2019-02-27T09:06:07.993Z,30.60
2019-02-27T09:08:37.513Z,26.67
2019-02-27T09:11:06.934Z,18.50
2019-02-27T09:13:36.229Z,23.07
2019-02-27T09:16:05.853Z,19.90
2019-02-27T09:18:36.449Z,21.87
2019-02-27T09:21:06.320Z,19.83
2019-02-27T09:23:35.604Z,22.13
2019-02-27T09:26:04.918Z,18.07
2019-02-27T09:28:34.210Z,17.63
2019-02-27T09:31:04.517Z,20.40
2019-02-27T09:33:38.745Z,18.10
2019-02-27T09:36:07.984Z,16.30
2019-02-27T09:38:36.647Z,17.00
2019-02-27T09:41:05.968Z,15.57
2019-02-27T09:43:35.273Z,19.33
2019-02-27T09:46:04.900Z,18.60
2019-02-27T09:48:34.303Z,15.27
2019-02-27T09:51:03.867Z,17.67
2019-02-27T09:53:34.034Z,16.27
2019-02-27T09:56:04.815Z,19.33
2019-02-27T09:58:34.123Z,14.27
2019-02-27T10:01:12.834Z,14.70
2019-02-27T10:03:42.117Z,17.13
2019-02-27T10:06:11.394Z,13.37
2019-02-27T10:08:41.409Z,14.43
2019-02-27T10:11:10.948Z,14.93
2019-02-27T10:13:40.264Z,15.03
2019-02-27T10:16:09.587Z,18.97
2019-02-27T10:18:38.971Z,13.77
2019-02-27T10:21:09.462Z,16.40
2019-02-27T10:23:39.297Z,14.87
2019-02-27T10:26:08.666Z,16.77
2019-02-27T10:28:39.655Z,14.50
2019-02-27T10:31:09.255Z,16.67
2019-02-27T10:33:38.922Z,13.60
2019-02-27T10:36:08.200Z,15.40
2019-02-27T10:38:40.384Z,18.70
2019-02-27T10:41:08.762Z,15.27
2019-02-27T10:43:38.047Z,14.57
2019-02-27T10:46:07.642Z,16.20
2019-02-27T10:48:37.244Z,15.17
2019-02-27T10:51:09.553Z,14.23
2019-02-27T10:53:37.596Z,13.43
2019-02-27T10:56:06.875Z,15.03
2019-02-27T10:58:36.158Z,15.47
2019-02-27T11:01:05.831Z,19.73
2019-02-27T11:03:35.108Z,15.60
2019-02-27T11:06:04.664Z,17.37
2019-02-27T11:08:34.283Z,14.47
2019-02-27T11:11:03.579Z,14.10
2019-02-27T11:13:32.931Z,14.57
2019-02-27T11:16:02.256Z,13.70
2019-02-27T11:18:31.848Z,17.43
2019-02-27T11:21:01.305Z,14.40
2019-02-27T11:23:30.613Z,13.00
2019-02-27T11:25:59.895Z,15.90
2019-02-27T11:28:29.216Z,10.37
2019-02-27T11:30:58.519Z,11.60
2019-02-27T11:33:32.728Z,11.70
2019-02-27T11:35:59.348Z,14.63
2019-02-27T11:38:28.636Z,11.50
2019-02-27T11:40:58.002Z,11.23
2019-02-27T11:43:27.396Z,9.13
2019-02-27T11:45:58.127Z,12.23
2019-02-27T11:48:28.678Z,16.10
2019-02-27T11:50:57.970Z,11.00
2019-02-27T11:53:37.790Z,15.47
2019-02-27T11:56:07.347Z,12.40
2019-02-27T11:58:38.508Z,12.33
2019-02-27T12:01:07.950Z,9.47
2019-02-27T12:03:37.255Z,6.73
2019-02-27T12:06:07.710Z,7.47
2019-02-27T12:08:40.172Z,11.33
2019-02-27T12:11:09.706Z,12.10
2019-02-27T12:13:40.592Z,10.50
2019-02-27T12:16:10.710Z,8.17
2019-02-27T12:18:40.135Z,9.13
2019-02-27T12:21:09.712Z,8.67
2019-02-27T12:23:41.244Z,11.13
2019-02-27T12:26:10.044Z,8.47
2019-02-27T12:28:39.350Z,10.63
2019-02-27T12:31:10.951Z,12.97
2019-02-27T12:33:40.039Z,7.03
2019-02-27T12:36:09.462Z,12.57
2019-02-27T12:38:39.295Z,8.13
2019-02-27T12:41:10.443Z,8.97
2019-02-27T12:43:39.755Z,9.10
2019-02-27T12:46:09.761Z,10.00
2019-02-27T12:48:39.183Z,8.80
2019-02-27T12:51:08.749Z,7.93
2019-02-27T12:53:38.057Z,13.83
2019-02-27T12:56:07.976Z,9.83
2019-02-27T12:58:37.879Z,13.50
2019-02-27T13:01:08.031Z,12.27
2019-02-27T13:03:42.170Z,10.20
2019-02-27T13:06:09.014Z,11.07
2019-02-27T13:08:38.896Z,8.87
2019-02-27T13:11:08.676Z,12.37
2019-02-27T13:13:38.404Z,13.73
2019-02-27T13:16:07.703Z,7.67
2019-02-27T13:18:36.995Z,10.33
2019-02-27T13:21:06.564Z,12.83
2019-02-27T13:23:36.329Z,8.07
2019-02-27T13:26:07.211Z,9.17
2019-02-27T13:28:36.571Z,10.33
2019-02-27T13:31:06.205Z,10.77
2019-02-27T13:33:38.745Z,7.93
2019-02-27T13:36:07.223Z,10.90
2019-02-27T13:38:37.065Z,12.57
2019-02-27T13:41:10.428Z,11.87
2019-02-27T13:43:40.444Z,8.83
2019-02-27T13:46:09.780Z,13.73
2019-02-27T13:48:39.808Z,7.50
2019-02-27T13:51:10.160Z,7.43
2019-02-27T13:53:39.518Z,7.20
2019-02-27T13:56:09.120Z,9.57
2019-02-27T13:58:38.678Z,10.03
2019-02-27T14:01:08.226Z,15.33
2019-02-27T14:03:38.697Z,11.27
2019-02-27T14:06:09.408Z,12.63
2019-02-27T14:08:38.889Z,10.40
2019-02-27T14:11:08.508Z,10.47
2019-02-27T14:13:37.803Z,10.03
2019-02-27T14:16:07.082Z,12.23
2019-02-27T14:18:37.780Z,10.13
2019-02-27T14:21:07.074Z,7.83
2019-02-27T14:23:36.420Z,6.33
2019-02-27T14:26:06.752Z,8.93
2019-02-27T14:28:37.025Z,7.83
2019-02-27T14:31:08.954Z,8.77
2019-02-27T14:33:37.462Z,9.27
2019-02-27T14:36:08.617Z,7.13
2019-02-27T14:38:38.064Z,5.33
2019-02-27T14:41:07.429Z,7.40
2019-02-27T14:43:36.723Z,7.03
2019-02-27T14:46:06.018Z,5.47
2019-02-27T14:48:35.319Z,4.30
2019-02-27T14:51:07.291Z,6.33
2019-02-27T14:53:35.679Z,5.33
2019-02-27T14:56:09.167Z,8.83
2019-02-27T14:59:39.234Z,7.43
2019-02-27T15:02:08.771Z,9.57
2019-02-27T15:04:38.070Z,9.47
2019-02-27T15:07:07.604Z,9.87
2019-02-27T15:09:37.154Z,7.73
2019-02-27T15:12:06.755Z,8.47
2019-02-27T15:14:36.309Z,6.30
2019-02-27T15:17:05.624Z,10.40
2019-02-27T15:19:35.535Z,6.73
2019-02-27T15:22:05.096Z,6.00
2019-02-27T15:24:41.907Z,6.67
2019-02-27T15:27:11.283Z,6.67
2019-02-27T15:29:40.608Z,7.37
2019-02-27T15:32:09.972Z,9.13
2019-02-27T15:34:39.511Z,8.37
2019-02-27T15:37:09.179Z,7.23
2019-02-27T15:39:38.452Z,7.30
2019-02-27T15:42:09.662Z,6.27
2019-02-27T15:44:39.004Z,7.30
2019-02-27T15:47:08.551Z,6.80
2019-02-27T15:49:37.871Z,4.97
2019-02-27T15:52:07.813Z,5.80
2019-02-27T15:54:37.208Z,3.80
2019-02-27T15:57:06.705Z,4.37
2019-02-27T15:59:40.852Z,6.47
2019-02-27T16:02:07.344Z,4.93
2019-02-27T16:04:59.208Z,7.97
2019-02-27T16:07:28.815Z,6.87
2019-02-27T16:09:58.375Z,6.73
2019-02-27T16:12:27.774Z,13.73
2019-02-27T16:14:57.950Z,11.70
2019-02-27T16:17:31.122Z,5.30
2019-02-27T16:19:58.870Z,9.20
2019-02-27T16:22:30.233Z,13.00
2019-02-27T16:24:59.653Z,6.30
2019-02-27T16:27:29.043Z,6.10
2019-02-27T16:30:01.949Z,5.17
2019-02-27T16:32:37.512Z,7.47
2019-02-27T16:35:08.055Z,14.70
2019-02-27T16:37:37.559Z,10.27
2019-02-27T16:40:07.824Z,7.33
2019-02-27T16:42:39.179Z,12.80
2019-02-27T16:45:16.000Z,10.00
2019-02-27T16:51:31.225Z,9.20
2019-02-27T16:54:01.639Z,8.37
2019-02-27T16:56:30.930Z,11.90
2019-02-27T16:59:00.372Z,10.80
2019-02-27T17:01:30.190Z,11.70
2019-02-27T17:04:00.498Z,13.80
2019-02-27T17:06:30.263Z,14.97
2019-02-27T17:08:59.615Z,16.10
2019-02-27T17:11:32.521Z,14.20
2019-02-27T17:14:01.775Z,24.83
2019-02-27T17:16:31.367Z,13.43
2019-02-27T17:19:01.825Z,13.17
2019-02-27T17:21:32.305Z,20.27
2019-02-27T17:24:01.655Z,19.07
2019-02-27T17:26:38.902Z,15.70
2019-02-27T17:29:06.456Z,10.23
2019-02-27T17:31:35.734Z,10.90
2019-02-27T17:34:15.118Z,10.40
2019-02-27T17:37:42.782Z,15.37
2019-02-27T17:40:29.417Z,10.77
2019-02-27T17:46:39.347Z,12.93
2019-02-27T17:49:09.044Z,16.93
2019-02-27T17:51:39.586Z,16.80
2019-02-27T17:54:10.015Z,12.93
2019-02-27T17:56:39.298Z,15.97
2019-02-27T17:59:09.428Z,19.27
2019-02-27T18:01:39.245Z,9.90
2019-02-27T18:04:08.631Z,29.03
2019-02-27T18:06:37.923Z,16.87
2019-02-27T18:09:08.452Z,18.73
2019-02-27T18:11:37.791Z,17.10
2019-02-27T18:14:09.899Z,21.30
2019-02-27T18:16:38.414Z,13.37
2019-02-27T18:19:07.762Z,19.87
2019-02-27T18:21:41.529Z,15.90
2019-02-27T18:24:15.428Z,14.43
2019-02-27T18:26:44.715Z,20.07
2019-02-27T18:29:14.619Z,26.67
2019-02-27T18:31:44.285Z,37.13
2019-02-27T18:34:13.780Z,31.50
2019-02-27T18:36:46.569Z,25.00
2019-02-27T18:39:14.354Z,25.37
2019-02-27T18:41:45.727Z,29.60
2019-02-27T18:44:14.942Z,22.53
2019-02-27T18:46:44.216Z,20.60
2019-02-27T18:49:15.220Z,20.67
2019-02-27T18:51:46.839Z,16.73
2019-02-27T18:54:15.816Z,20.67
2019-02-27T18:56:45.470Z,18.97
2019-02-27T18:59:14.767Z,22.30
2019-02-27T19:01:45.111Z,22.47
2019-02-27T19:04:15.290Z,23.23
2019-02-27T19:06:46.228Z,16.43
2019-02-27T19:09:15.723Z,19.77
2019-02-27T19:11:47.475Z,20.43
2019-02-27T19:14:17.041Z,19.20
2019-02-27T19:16:46.642Z,21.20
2019-02-27T19:23:04.567Z,21.07
2019-02-27T19:25:34.745Z,19.33
2019-02-27T19:28:05.121Z,22.67
2019-02-27T19:30:34.819Z,20.50
2019-02-27T19:33:04.605Z,20.67
2019-02-27T19:35:45.839Z,36.47
2019-02-27T19:38:15.450Z,21.50
2019-02-27T19:41:03.854Z,22.23
2019-02-27T19:44:28.529Z,22.07
2019-02-27T19:46:55.798Z,21.03
2019-02-27T19:49:25.108Z,23.07
2019-02-27T19:51:55.415Z,27.70
2019-02-27T19:54:30.986Z,28.97
2019-02-27T19:58:38.194Z,27.43
2019-02-27T20:02:33.762Z,24.90
2019-02-27T20:04:49.528Z,25.03
2019-02-27T20:08:19.252Z,22.57
2019-02-27T20:11:30.020Z,20.87
2019-02-27T20:15:45.682Z,33.37
2019-02-27T20:18:12.432Z,53.13
2019-02-27T20:20:41.818Z,49.77
2019-02-27T20:23:11.239Z,45.47
2019-02-27T20:25:43.447Z,37.97
2019-02-27T20:28:11.712Z,28.23
2019-02-27T20:30:41.593Z,29.17
2019-02-27T20:33:22.260Z,23.13
2019-02-27T20:35:52.389Z,17.90
2019-02-27T20:38:29.624Z,22.83
2019-02-27T20:40:58.945Z,12.57
2019-02-27T20:44:14.830Z,14.67
2019-02-27T20:49:47.352Z,16.00
2019-02-27T20:55:41.995Z,16.50
2019-02-27T20:59:02.022Z,15.30
2019-02-27T21:02:30.303Z,12.70
2019-02-27T21:06:35.378Z,19.83
2019-02-27T21:19:19.263Z,34.40
2019-02-27T21:21:53.629Z,33.47
2019-02-27T21:25:14.898Z,32.00
2019-02-27T21:27:44.373Z,23.60
2019-02-27T21:30:19.197Z,25.77
2019-02-27T21:32:54.168Z,21.30
2019-02-27T21:35:28.937Z,22.43
2019-02-27T21:37:55.527Z,20.73
2019-02-27T21:40:24.882Z,17.77
2019-02-27T21:42:54.507Z,23.13
2019-02-27T21:45:23.844Z,17.17
2019-02-27T21:47:53.872Z,20.33
2019-02-27T21:50:23.352Z,21.63
2019-02-27T21:52:54.520Z,18.97
2019-02-27T21:55:24.064Z,23.63
2019-02-27T21:57:53.710Z,24.03
2019-02-27T22:00:24.000Z,21.17
2019-02-27T22:02:53.572Z,26.07
2019-02-27T22:05:23.209Z,23.37
2019-02-27T22:07:53.210Z,21.87
2019-02-27T22:10:22.810Z,21.27
2019-02-27T22:12:52.450Z,25.63
2019-02-27T22:15:24.401Z,19.27
2019-02-27T22:17:53.695Z,26.63
2019-02-27T22:20:25.804Z,20.47
2019-02-27T22:22:54.238Z,22.20
2019-02-27T22:25:30.196Z,20.60
2019-02-27T22:28:02.265Z,19.60
2019-02-27T22:30:32.632Z,20.10
2019-02-27T22:33:02.499Z,18.37
2019-02-27T22:35:40.870Z,20.90
2019-02-27T22:38:10.521Z,20.70
2019-02-27T22:40:40.204Z,16.97
2019-02-27T22:43:09.755Z,20.43
2019-02-27T22:45:41.937Z,21.60
2019-02-27T22:48:10.351Z,15.33
2019-02-27T22:50:41.087Z,19.37
2019-02-27T22:53:10.960Z,14.47
2019-02-27T22:55:42.180Z,14.93
2019-02-27T22:58:13.655Z,14.77
2019-02-27T23:01:04.851Z,16.53
2019-02-27T23:03:43.227Z,14.07
2019-02-27T23:06:13.018Z,18.43
2019-02-27T23:08:42.892Z,15.20
2019-02-27T23:11:12.536Z,20.40
2019-02-27T23:13:47.555Z,14.70
2019-02-27T23:16:16.711Z,13.33
2019-02-27T23:19:26.448Z,16.00
2019-02-27T23:25:40.256Z,15.83
2019-02-27T23:28:09.576Z,15.27
2019-02-27T23:30:39.232Z,16.27
2019-02-27T23:33:09.063Z,15.13
2019-02-27T23:35:38.344Z,15.93
2019-02-27T23:38:07.744Z,17.07
2019-02-27T23:41:43.149Z,19.17
2019-02-27T23:44:13.443Z,19.23
2019-02-27T23:46:49.782Z,16.27
2019-02-27T23:49:14.027Z,15.97
2019-02-27T23:51:43.314Z,13.13
2019-02-27T23:54:12.623Z,14.80
2019-02-27T23:56:41.937Z,16.07
2019-02-27T23:59:20.127Z,16.20
